Cape Moreton Lighthouse, Queensland

10:15 AM AEST on June 04, 2015 (GMT +1000)
Bongaree Bribie Island | | Change Station
CLOSE
Current Station
Personal Weather Station
Location: Bongaree, QUEENSLAND
Elevation: 30 ft
Nearby Weather Stations

Elev 30 ft 27.09 °S, 153.17 °E | Updated 23 seconds ago

Partly Cloudy
Partly Cloudy
61.2 °F
Feels Like 61.2 °F
N
0.0
Wind Variable Wind from WSW
Gusts 0.0 mph

Today
High -- | Low -- °F
--% Chance of Precip.
Yesterday
High -- | Low -- °F
Precip. -- in
6:28 AM 4:59 PM
Full, 98% visible
Pressure 30.18 in
Visibility 6.2 miles
Clouds Few 3800 ft
Dew Point 52 °F
Humidity 73%
Rainfall 0.00 in
Snow Depth Not available.
UV 2.0 out of 12
Pollen Not available.
Air Quality Not available.
Flu Activity Not available.
METAR YBBN 040000Z 22007KT 9999 FEW038 16/06 Q1022 RMK HZ

More Conditions Fewer Conditions

Pressure 30.18 in
Visibility 6.2 miles
Clouds Few 3800 ft
Dew Point 52 °F
Humidity 73%
Rainfall 0.00 in
Snow Depth Not available.
UV 2.0 out of 12
Pollen Not available.
Air Quality Not available.
Flu Activity Not available.
METAR YBBN 040000Z 22007KT 9999 FEW038 16/06 Q1022 RMK HZ

More Conditions Fewer Conditions

10-Day Weather Forecast

×

Almanac

Astronomy

Jun. 04, 2015 Rise Set
Actual Time
Civil Twilight
Nautical Twilight
Astronomical Twilight
Moon
Length of Visible Light
Length of Day
Tomorrow will be .
, % of the Moon is Illuminated

Today's Extremes

Country Highs Country Lows

Community

WunderPhotos

Upload Photos

1,826,310 photos uploaded!

WunderBlogs® & News

Nearby

Air Quality

  Air Quality AQ Index Pollutant
Not available.

Snow Depth

Station Depth Elevation

Earthquake Activity

City Distance Mag. Time & Date
Minimum magnitude displayed is 2.5.

Coastal Water Temperatures

Place Temperature

Stations

Nearby Weather Stations

Station Location Temp. Windchill Dew Point Humidity Wind Precip. Elev Updated Type